San Francisco, California
Traffic Map
Current Weather Conditions
San Francisco, California
Broken Clouds Light Rain
Broken Clouds

Feels Like: 7°
Wind Chill: Ceiling: 5500
Heat Index: Visibility: 7mi
Dew Point: Wind: 13mph
Humidity: 74% Direction: 230° (SW)
Pressure: 29.72in Gusts: 26mph
Raw Report DataKSFO 230656Z 23011G23KT 7SM -RA FEW023 SCT040 BKN055 09/05 A2972 RMK AO2 RAB39 SLP063 P0001 T00940050 $
Traffic Incident Summary
Active as of:
Severity:
Category:
InformationThere was an issue retrieving the traffic information for this location. Please try a different location or try again shortly.
Advertisements
Track Severe Weather on mobile